createdAt,value
2018-02-25T00:09:13.708Z,-1.93
2018-02-25T00:19:13.668Z,-2.23
2018-02-25T00:29:13.716Z,-2.32
2018-02-25T00:39:13.669Z,-2.38
2018-02-25T00:49:13.744Z,-2.32
2018-02-25T00:59:13.695Z,-2.47
2018-02-25T01:09:13.671Z,-2.4
2018-02-25T01:19:13.728Z,-2.64
2018-02-25T01:29:13.796Z,-2.58
2018-02-25T01:39:13.758Z,-2.74
2018-02-25T01:49:13.731Z,-2.79
2018-02-25T01:59:13.791Z,-2.9
2018-02-25T02:09:13.754Z,-3.05
2018-02-25T02:19:13.765Z,-2.92
2018-02-25T02:29:13.755Z,-3
2018-02-25T02:39:13.816Z,-3.18
2018-02-25T02:49:13.776Z,-3.15
2018-02-25T02:59:13.773Z,-3.23
2018-02-25T03:09:13.803Z,-3.18
2018-02-25T03:19:13.761Z,-3.32
2018-02-25T03:29:13.801Z,-3.57
2018-02-25T03:39:13.779Z,-3.75
2018-02-25T03:49:14.058Z,-4.01
2018-02-25T03:59:13.831Z,-4.05
2018-02-25T04:09:13.789Z,-4.08
2018-02-25T04:19:13.859Z,-4.09
2018-02-25T04:29:13.782Z,-4.12
2018-02-25T04:39:13.888Z,-4.18
2018-02-25T04:49:13.837Z,-4.26
2018-02-25T04:59:13.884Z,-4.37
2018-02-25T05:09:13.880Z,-4.4
2018-02-25T05:19:13.893Z,-4.5
2018-02-25T05:29:13.902Z,-4.47
2018-02-25T05:39:13.805Z,-4.58
2018-02-25T05:49:13.892Z,-4.76
2018-02-25T05:59:13.822Z,-4.83
2018-02-25T06:09:13.907Z,-4.66
2018-02-25T06:19:13.899Z,-4.75
2018-02-25T06:29:13.933Z,-4.91
2018-02-25T06:39:13.899Z,-4.79
2018-02-25T06:49:13.961Z,-4.83
2018-02-25T06:59:13.937Z,-4.68
2018-02-25T07:09:14.193Z,-4.54
2018-02-25T07:19:13.981Z,-4.43
2018-02-25T07:29:13.904Z,-4.26
2018-02-25T07:39:13.970Z,-3.94
2018-02-25T07:49:13.950Z,-3.78
2018-02-25T07:59:13.992Z,-3.68
2018-02-25T08:09:13.975Z,-3.36
2018-02-25T08:19:14.091Z,-3.25
2018-02-25T08:29:13.995Z,-2.96
2018-02-25T08:39:13.947Z,-2.93
2018-02-25T08:49:13.988Z,-2.68
2018-02-25T08:59:13.957Z,-2.53
2018-02-25T09:09:14.047Z,-1.95
2018-02-25T09:19:14.019Z,-1.99
2018-02-25T09:29:14.977Z,-1.85
2018-02-25T09:39:14.036Z,-1.74
2018-02-25T09:49:14.058Z,-1.63
2018-02-25T09:59:14.065Z,-1.33
2018-02-25T10:09:14.039Z,-1.15
2018-02-25T10:19:14.046Z,-1.1
2018-02-25T10:29:14.046Z,-0.8
2018-02-25T10:39:14.071Z,-0.72
2018-02-25T10:49:14.041Z,-0.36
2018-02-25T10:59:14.128Z,-0.33
2018-02-25T11:09:14.051Z,0.09
2018-02-25T11:19:14.143Z,0.23
2018-02-25T11:29:14.233Z,0.45
2018-02-25T11:39:14.183Z,0.64
2018-02-25T11:49:14.127Z,0.67
2018-02-25T11:59:14.226Z,0.76
2018-02-25T12:09:14.171Z,0.48
2018-02-25T12:19:14.107Z,0.43
2018-02-25T12:29:14.205Z,0.36
2018-02-25T12:39:14.135Z,0.96
2018-02-25T12:49:14.202Z,0.79
2018-02-25T12:59:14.141Z,0.97
2018-02-25T13:09:14.231Z,0.85
2018-02-25T13:19:14.209Z,0.83
2018-02-25T13:29:14.114Z,0.85
2018-02-25T13:39:14.190Z,0.96
2018-02-25T13:49:14.152Z,0.7
2018-02-25T13:59:14.218Z,0.76
2018-02-25T14:09:14.199Z,0.7
2018-02-25T14:19:14.249Z,0.71
2018-02-25T14:29:14.318Z,0.76
2018-02-25T14:39:14.357Z,0.52
2018-02-25T14:49:14.324Z,0.46
2018-02-25T15:09:17.879Z,0.2
2018-02-25T15:19:15.485Z,0.6
2018-02-25T15:29:14.296Z,0.92
2018-02-25T15:39:15.342Z,0.88
2018-02-25T15:49:14.309Z,0.31
2018-02-25T15:59:14.473Z,0.41
2018-02-25T16:09:14.366Z,-0.09
2018-02-25T16:19:14.277Z,-0.23
2018-02-25T16:29:15.227Z,-0.59
2018-02-25T16:39:14.323Z,-0.7
2018-02-25T16:49:15.024Z,-0.8
2018-02-25T16:59:14.374Z,-0.92
2018-02-25T17:09:14.342Z,-0.86
2018-02-25T17:19:14.370Z,-0.84
2018-02-25T17:29:14.377Z,-1.07
2018-02-25T17:39:14.434Z,-1.28
2018-02-25T17:49:14.397Z,-1.41
2018-02-25T17:59:14.444Z,-1.67
2018-02-25T18:09:14.389Z,-1.67
2018-02-25T18:19:17.224Z,-1.77
2018-02-25T18:29:17.406Z,-1.95
2018-02-25T18:39:17.664Z,-2.02
2018-02-25T18:49:18.074Z,-2.08
2018-02-25T18:59:17.436Z,-2.16
2018-02-25T19:09:52.573Z,-2.45
2018-02-25T19:19:49.786Z,-2.43
2018-02-25T19:29:15.135Z,-2.6
2018-02-25T19:39:14.429Z,-2.78
2018-02-25T19:49:14.535Z,-2.81
2018-02-25T19:59:14.470Z,-2.97
2018-02-25T20:09:14.447Z,-2.82
2018-02-25T20:19:14.818Z,-2.5
2018-02-25T20:29:14.444Z,-2.36
2018-02-25T20:39:14.493Z,-2.26
2018-02-25T20:49:14.470Z,-2.42
2018-02-25T20:59:14.614Z,-2.51
2018-02-25T21:09:14.489Z,-2.33
2018-02-25T21:19:15.389Z,-2.13
2018-02-25T21:29:14.593Z,-2.16
2018-02-25T21:39:14.659Z,-1.88
2018-02-25T21:49:14.560Z,-1.95
2018-02-25T21:59:14.605Z,-1.96
2018-02-25T22:09:14.576Z,-1.75
2018-02-25T22:19:14.603Z,-1.93
2018-02-25T22:29:14.572Z,-2.2
2018-02-25T22:39:15.250Z,-2.18
2018-02-25T22:49:14.621Z,-2.29
2018-02-25T22:59:14.541Z,-2.4
2018-02-25T23:09:14.597Z,-2.63
2018-02-25T23:19:14.552Z,-2.92
2018-02-25T23:29:14.619Z,-2.78
2018-02-25T23:39:14.607Z,-3.11
2018-02-25T23:49:14.638Z,-3.13
2018-02-25T23:59:14.613Z,-3.11
